sensor_id;sensor_type;location;lat;lon;timestamp;temperature;humidity
74420;DHT22;62855;50.718;-2.460;2022-12-18T00:01:01;29.48;72.00
74420;DHT22;62855;50.718;-2.460;2022-12-18T00:04:02;29.48;72.00
74420;DHT22;62855;50.718;-2.460;2022-12-18T00:07:00;29.48;72.00
74420;DHT22;62855;50.718;-2.460;2022-12-18T00:10:01;29.66;72.00
74420;DHT22;62855;50.718;-2.460;2022-12-18T00:13:00;29.66;72.00
74420;DHT22;62855;50.718;-2.460;2022-12-18T00:16:01;29.66;72.00
74420;DHT22;62855;50.718;-2.460;2022-12-18T00:19:00;29.66;72.00
74420;DHT22;62855;50.718;-2.460;2022-12-18T00:22:01;29.84;72.00
74420;DHT22;62855;50.718;-2.460;2022-12-18T00:25:00;29.84;72.00
74420;DHT22;62855;50.718;-2.460;2022-12-18T00:28:00;29.84;72.00
74420;DHT22;62855;50.718;-2.460;2022-12-18T00:31:01;29.84;72.00
74420;DHT22;62855;50.718;-2.460;2022-12-18T00:34:01;29.66;72.00
74420;DHT22;62855;50.718;-2.460;2022-12-18T00:37:00;29.66;72.00
74420;DHT22;62855;50.718;-2.460;2022-12-18T00:40:01;29.66;72.00
74420;DHT22;62855;50.718;-2.460;2022-12-18T00:43:00;29.66;72.00
74420;DHT22;62855;50.718;-2.460;2022-12-18T00:46:00;29.84;72.00
74420;DHT22;62855;50.718;-2.460;2022-12-18T00:49:00;29.84;72.00
74420;DHT22;62855;50.718;-2.460;2022-12-18T00:52:00;29.84;72.00
74420;DHT22;62855;50.718;-2.460;2022-12-18T00:55:00;30.02;72.00
74420;DHT22;62855;50.718;-2.460;2022-12-18T00:58:01;30.02;72.00
74420;DHT22;62855;50.718;-2.460;2022-12-18T01:01:00;30.02;72.00
74420;DHT22;62855;50.718;-2.460;2022-12-18T01:04:01;30.20;72.00
74420;DHT22;62855;50.718;-2.460;2022-12-18T01:07:00;30.20;72.00
74420;DHT22;62855;50.718;-2.460;2022-12-18T01:10:01;30.38;72.00
74420;DHT22;62855;50.718;-2.460;2022-12-18T01:13:01;30.56;72.00
74420;DHT22;62855;50.718;-2.460;2022-12-18T01:16:01;30.92;72.00
74420;DHT22;62855;50.718;-2.460;2022-12-18T01:19:00;31.28;73.00
74420;DHT22;62855;50.718;-2.460;2022-12-18T01:22:00;31.64;73.00
74420;DHT22;62855;50.718;-2.460;2022-12-18T01:25:00;32.00;73.00
74420;DHT22;62855;50.718;-2.460;2022-12-18T01:28:00;32.36;73.00
74420;DHT22;62855;50.718;-2.460;2022-12-18T01:31:11;32.72;73.00
74420;DHT22;62855;50.718;-2.460;2022-12-18T01:34:01;32.90;73.00
74420;DHT22;62855;50.718;-2.460;2022-12-18T01:37:02;33.08;73.00
74420;DHT22;62855;50.718;-2.460;2022-12-18T01:40:00;33.26;73.00
74420;DHT22;62855;50.718;-2.460;2022-12-18T01:43:00;33.44;73.00
74420;DHT22;62855;50.718;-2.460;2022-12-18T01:46:01;33.80;72.00
74420;DHT22;62855;50.718;-2.460;2022-12-18T01:49:01;33.98;72.00
74420;DHT22;62855;50.718;-2.460;2022-12-18T01:52:01;34.16;72.00
74420;DHT22;62855;50.718;-2.460;2022-12-18T01:55:03;34.16;71.00
74420;DHT22;62855;50.718;-2.460;2022-12-18T01:58:01;34.52;71.00
74420;DHT22;62855;50.718;-2.460;2022-12-18T02:01:00;34.70;71.00
74420;DHT22;62855;50.718;-2.460;2022-12-18T02:04:18;34.88;70.00
74420;DHT22;62855;50.718;-2.460;2022-12-18T02:07:06;35.24;70.00
74420;DHT22;62855;50.718;-2.460;2022-12-18T02:10:06;35.42;70.00
74420;DHT22;62855;50.718;-2.460;2022-12-18T02:13:06;35.60;70.00
74420;DHT22;62855;50.718;-2.460;2022-12-18T02:16:05;35.60;69.00
74420;DHT22;62855;50.718;-2.460;2022-12-18T02:19:06;35.78;69.00
74420;DHT22;62855;50.718;-2.460;2022-12-18T02:22:07;35.78;68.00
74420;DHT22;62855;50.718;-2.460;2022-12-18T02:25:13;35.78;68.00
74420;DHT22;62855;50.718;-2.460;2022-12-18T02:28:04;35.96;68.00
74420;DHT22;62855;50.718;-2.460;2022-12-18T02:31:02;36.14;67.00
74420;DHT22;62855;50.718;-2.460;2022-12-18T02:34:03;36.14;67.00
74420;DHT22;62855;50.718;-2.460;2022-12-18T02:37:04;36.14;67.00
74420;DHT22;62855;50.718;-2.460;2022-12-18T02:40:03;36.14;67.00
74420;DHT22;62855;50.718;-2.460;2022-12-18T02:43:03;36.32;66.00
74420;DHT22;62855;50.718;-2.460;2022-12-18T02:46:25;36.32;66.00
74420;DHT22;62855;50.718;-2.460;2022-12-18T02:49:08;36.50;65.00
74420;DHT22;62855;50.718;-2.460;2022-12-18T02:52:06;36.50;64.00
74420;DHT22;62855;50.718;-2.460;2022-12-18T02:55:11;36.68;63.00
74420;DHT22;62855;50.718;-2.460;2022-12-18T02:58:04;36.86;63.00
74420;DHT22;62855;50.718;-2.460;2022-12-18T03:01:03;37.04;63.00
74420;DHT22;62855;50.718;-2.460;2022-12-18T03:04:03;37.04;62.00
74420;DHT22;62855;50.718;-2.460;2022-12-18T03:07:05;37.22;62.00
74420;DHT22;62855;50.718;-2.460;2022-12-18T03:10:01;37.22;62.00
74420;DHT22;62855;50.718;-2.460;2022-12-18T03:13:04;37.40;62.00
74420;DHT22;62855;50.718;-2.460;2022-12-18T03:16:02;37.58;62.00
74420;DHT22;62855;50.718;-2.460;2022-12-18T03:19:02;37.58;62.00
74420;DHT22;62855;50.718;-2.460;2022-12-18T03:22:02;37.58;62.00
74420;DHT22;62855;50.718;-2.460;2022-12-18T03:25:03;37.58;62.00
74420;DHT22;62855;50.718;-2.460;2022-12-18T03:28:02;37.76;62.00
74420;DHT22;62855;50.718;-2.460;2022-12-18T03:31:01;37.76;62.00
74420;DHT22;62855;50.718;-2.460;2022-12-18T03:34:03;37.58;62.00
74420;DHT22;62855;50.718;-2.460;2022-12-18T03:37:01;37.58;62.00
74420;DHT22;62855;50.718;-2.460;2022-12-18T03:40:01;37.58;62.00
74420;DHT22;62855;50.718;-2.460;2022-12-18T03:43:03;37.58;62.00
74420;DHT22;62855;50.718;-2.460;2022-12-18T03:46:06;37.40;63.00
74420;DHT22;62855;50.718;-2.460;2022-12-18T03:49:07;37.40;63.00
74420;DHT22;62855;50.718;-2.460;2022-12-18T03:52:03;37.40;63.00
74420;DHT22;62855;50.718;-2.460;2022-12-18T03:55:01;37.40;63.00
74420;DHT22;62855;50.718;-2.460;2022-12-18T03:58:02;37.40;63.00
74420;DHT22;62855;50.718;-2.460;2022-12-18T04:01:03;37.40;64.00
74420;DHT22;62855;50.718;-2.460;2022-12-18T04:04:02;37.40;64.00
74420;DHT22;62855;50.718;-2.460;2022-12-18T04:08:01;37.40;65.00
74420;DHT22;62855;50.718;-2.460;2022-12-18T04:11:01;37.40;65.00
74420;DHT22;62855;50.718;-2.460;2022-12-18T04:14:00;37.40;66.00
74420;DHT22;62855;50.718;-2.460;2022-12-18T04:17:00;37.22;66.00
74420;DHT22;62855;50.718;-2.460;2022-12-18T04:20:01;37.40;67.00
74420;DHT22;62855;50.718;-2.460;2022-12-18T04:23:01;37.40;67.00
74420;DHT22;62855;50.718;-2.460;2022-12-18T04:26:01;37.22;67.00
74420;DHT22;62855;50.718;-2.460;2022-12-18T04:29:01;37.22;68.00
74420;DHT22;62855;50.718;-2.460;2022-12-18T04:32:00;37.22;68.00
74420;DHT22;62855;50.718;-2.460;2022-12-18T04:35:01;37.22;68.00
74420;DHT22;62855;50.718;-2.460;2022-12-18T04:38:01;37.22;68.00
74420;DHT22;62855;50.718;-2.460;2022-12-18T04:41:00;37.22;68.00
74420;DHT22;62855;50.718;-2.460;2022-12-18T04:44:01;37.22;68.00
74420;DHT22;62855;50.718;-2.460;2022-12-18T04:47:01;37.04;68.00
74420;DHT22;62855;50.718;-2.460;2022-12-18T04:50:01;37.04;68.00
74420;DHT22;62855;50.718;-2.460;2022-12-18T04:53:00;37.04;69.00
74420;DHT22;62855;50.718;-2.460;2022-12-18T04:56:04;37.04;69.00
74420;DHT22;62855;50.718;-2.460;2022-12-18T04:59:00;36.86;69.00
74420;DHT22;62855;50.718;-2.460;2022-12-18T05:02:00;36.86;69.00
74420;DHT22;62855;50.718;-2.460;2022-12-18T05:05:00;36.86;70.00
74420;DHT22;62855;50.718;-2.460;2022-12-18T05:08:01;36.86;70.00
74420;DHT22;62855;50.718;-2.460;2022-12-18T05:11:03;36.86;70.00
74420;DHT22;62855;50.718;-2.460;2022-12-18T05:14:01;36.86;70.00
74420;DHT22;62855;50.718;-2.460;2022-12-18T05:17:00;36.86;70.00
74420;DHT22;62855;50.718;-2.460;2022-12-18T05:20:00;36.86;70.00
74420;DHT22;62855;50.718;-2.460;2022-12-18T05:23:01;36.86;70.00
74420;DHT22;62855;50.718;-2.460;2022-12-18T05:26:02;36.86;70.00
74420;DHT22;62855;50.718;-2.460;2022-12-18T05:29:00;36.86;70.00
74420;DHT22;62855;50.718;-2.460;2022-12-18T05:32:01;36.86;71.00
74420;DHT22;62855;50.718;-2.460;2022-12-18T05:35:00;36.86;71.00
74420;DHT22;62855;50.718;-2.460;2022-12-18T05:38:01;36.68;71.00
74420;DHT22;62855;50.718;-2.460;2022-12-18T05:41:01;36.86;71.00
74420;DHT22;62855;50.718;-2.460;2022-12-18T05:44:01;36.86;71.00
74420;DHT22;62855;50.718;-2.460;2022-12-18T05:47:00;36.86;72.00
74420;DHT22;62855;50.718;-2.460;2022-12-18T05:50:00;36.86;72.00
74420;DHT22;62855;50.718;-2.460;2022-12-18T05:53:00;36.86;72.00
74420;DHT22;62855;50.718;-2.460;2022-12-18T05:56:01;36.86;72.00
74420;DHT22;62855;50.718;-2.460;2022-12-18T05:59:00;36.86;72.00
74420;DHT22;62855;50.718;-2.460;2022-12-18T06:02:00;36.86;72.00
74420;DHT22;62855;50.718;-2.460;2022-12-18T06:05:01;36.86;72.00
74420;DHT22;62855;50.718;-2.460;2022-12-18T06:08:00;36.68;72.00
74420;DHT22;62855;50.718;-2.460;2022-12-18T06:11:01;36.68;72.00
74420;DHT22;62855;50.718;-2.460;2022-12-18T06:14:02;36.68;72.00
74420;DHT22;62855;50.718;-2.460;2022-12-18T06:17:00;36.68;72.00
74420;DHT22;62855;50.718;-2.460;2022-12-18T06:20:00;36.68;72.00
74420;DHT22;62855;50.718;-2.460;2022-12-18T06:23:00;36.68;72.00
74420;DHT22;62855;50.718;-2.460;2022-12-18T06:26:04;36.86;73.00
74420;DHT22;62855;50.718;-2.460;2022-12-18T06:29:00;36.86;73.00
74420;DHT22;62855;50.718;-2.460;2022-12-18T06:32:00;36.86;73.00
74420;DHT22;62855;50.718;-2.460;2022-12-18T06:35:01;36.86;74.00
74420;DHT22;62855;50.718;-2.460;2022-12-18T06:38:01;36.86;74.00
74420;DHT22;62855;50.718;-2.460;2022-12-18T06:41:00;37.04;74.00
74420;DHT22;62855;50.718;-2.460;2022-12-18T06:44:00;36.86;75.00
74420;DHT22;62855;50.718;-2.460;2022-12-18T06:47:00;36.86;75.00
74420;DHT22;62855;50.718;-2.460;2022-12-18T06:50:01;36.86;75.00
74420;DHT22;62855;50.718;-2.460;2022-12-18T06:53:00;37.04;75.00
74420;DHT22;62855;50.718;-2.460;2022-12-18T06:56:01;37.04;75.00
74420;DHT22;62855;50.718;-2.460;2022-12-18T06:59:00;37.04;75.00
74420;DHT22;62855;50.718;-2.460;2022-12-18T07:02:00;37.04;75.00
74420;DHT22;62855;50.718;-2.460;2022-12-18T07:05:00;37.04;76.00
74420;DHT22;62855;50.718;-2.460;2022-12-18T07:08:00;37.04;76.00
74420;DHT22;62855;50.718;-2.460;2022-12-18T07:11:03;37.04;76.00
74420;DHT22;62855;50.718;-2.460;2022-12-18T07:14:00;37.04;76.00
74420;DHT22;62855;50.718;-2.460;2022-12-18T07:17:01;37.04;76.00
74420;DHT22;62855;50.718;-2.460;2022-12-18T07:20:00;37.04;77.00
74420;DHT22;62855;50.718;-2.460;2022-12-18T07:23:01;37.04;77.00
74420;DHT22;62855;50.718;-2.460;2022-12-18T07:26:01;37.04;77.00
74420;DHT22;62855;50.718;-2.460;2022-12-18T07:29:00;37.04;78.00
74420;DHT22;62855;50.718;-2.460;2022-12-18T07:32:01;36.86;78.00
74420;DHT22;62855;50.718;-2.460;2022-12-18T07:35:00;36.86;78.00
74420;DHT22;62855;50.718;-2.460;2022-12-18T07:38:00;36.86;79.00
74420;DHT22;62855;50.718;-2.460;2022-12-18T07:41:01;36.86;79.00
74420;DHT22;62855;50.718;-2.460;2022-12-18T07:44:01;36.86;80.00
74420;DHT22;62855;50.718;-2.460;2022-12-18T07:47:01;36.68;80.00
74420;DHT22;62855;50.718;-2.460;2022-12-18T07:50:01;36.68;80.00
74420;DHT22;62855;50.718;-2.460;2022-12-18T07:53:00;36.68;80.00
74420;DHT22;62855;50.718;-2.460;2022-12-18T07:56:02;36.68;80.00
74420;DHT22;62855;50.718;-2.460;2022-12-18T07:59:00;36.68;80.00
74420;DHT22;62855;50.718;-2.460;2022-12-18T08:02:00;36.68;81.00
74420;DHT22;62855;50.718;-2.460;2022-12-18T08:05:00;36.50;81.00
74420;DHT22;62855;50.718;-2.460;2022-12-18T08:08:00;36.50;81.00
74420;DHT22;62855;50.718;-2.460;2022-12-18T08:11:01;36.50;81.00
74420;DHT22;62855;50.718;-2.460;2022-12-18T08:14:00;36.50;81.00
74420;DHT22;62855;50.718;-2.460;2022-12-18T08:17:00;36.50;81.00
74420;DHT22;62855;50.718;-2.460;2022-12-18T08:20:01;36.32;81.00
74420;DHT22;62855;50.718;-2.460;2022-12-18T08:23:00;36.32;82.00
74420;DHT22;62855;50.718;-2.460;2022-12-18T08:26:00;36.32;82.00
74420;DHT22;62855;50.718;-2.460;2022-12-18T08:29:01;36.32;82.00
74420;DHT22;62855;50.718;-2.460;2022-12-18T08:32:01;36.32;82.00
74420;DHT22;62855;50.718;-2.460;2022-12-18T08:35:01;36.32;82.00
74420;DHT22;62855;50.718;-2.460;2022-12-18T08:38:00;36.32;82.00
74420;DHT22;62855;50.718;-2.460;2022-12-18T08:41:01;36.32;82.00
74420;DHT22;62855;50.718;-2.460;2022-12-18T08:44:00;36.32;82.00
74420;DHT22;62855;50.718;-2.460;2022-12-18T08:47:01;36.32;83.00
74420;DHT22;62855;50.718;-2.460;2022-12-18T08:50:01;36.32;83.00
74420;DHT22;62855;50.718;-2.460;2022-12-18T08:53:01;36.32;83.00
74420;DHT22;62855;50.718;-2.460;2022-12-18T08:56:01;36.32;83.00
74420;DHT22;62855;50.718;-2.460;2022-12-18T08:59:00;36.32;83.00
74420;DHT22;62855;50.718;-2.460;2022-12-18T09:02:01;36.32;83.00
74420;DHT22;62855;50.718;-2.460;2022-12-18T09:05:01;36.32;83.00
74420;DHT22;62855;50.718;-2.460;2022-12-18T09:08:00;36.32;83.00
74420;DHT22;62855;50.718;-2.460;2022-12-18T09:11:01;36.32;83.00
74420;DHT22;62855;50.718;-2.460;2022-12-18T09:14:01;36.32;83.00
74420;DHT22;62855;50.718;-2.460;2022-12-18T09:17:00;36.50;83.00
74420;DHT22;62855;50.718;-2.460;2022-12-18T09:20:00;36.50;84.00
74420;DHT22;62855;50.718;-2.460;2022-12-18T09:23:00;36.50;84.00
74420;DHT22;62855;50.718;-2.460;2022-12-18T09:26:00;36.50;84.00
74420;DHT22;62855;50.718;-2.460;2022-12-18T09:29:01;36.50;84.00
74420;DHT22;62855;50.718;-2.460;2022-12-18T09:32:01;36.50;84.00
74420;DHT22;62855;50.718;-2.460;2022-12-18T09:35:00;36.32;84.00
74420;DHT22;62855;50.718;-2.460;2022-12-18T09:38:00;36.32;84.00
74420;DHT22;62855;50.718;-2.460;2022-12-18T09:41:05;36.32;84.00
74420;DHT22;62855;50.718;-2.460;2022-12-18T09:44:02;36.32;84.00
74420;DHT22;62855;50.718;-2.460;2022-12-18T09:47:05;36.32;84.00
74420;DHT22;62855;50.718;-2.460;2022-12-18T09:50:04;36.32;84.00
74420;DHT22;62855;50.718;-2.460;2022-12-18T09:53:04;36.32;84.00
74420;DHT22;62855;50.718;-2.460;2022-12-18T09:56:01;36.32;84.00
74420;DHT22;62855;50.718;-2.460;2022-12-18T09:59:02;36.50;84.00
74420;DHT22;62855;50.718;-2.460;2022-12-18T10:02:15;36.50;85.00
74420;DHT22;62855;50.718;-2.460;2022-12-18T10:05:06;36.68;85.00
74420;DHT22;62855;50.718;-2.460;2022-12-18T10:08:05;36.68;85.00
74420;DHT22;62855;50.718;-2.460;2022-12-18T10:11:09;36.86;85.00
74420;DHT22;62855;50.718;-2.460;2022-12-18T10:14:06;37.04;85.00
74420;DHT22;62855;50.718;-2.460;2022-12-18T10:17:11;37.22;85.00
74420;DHT22;62855;50.718;-2.460;2022-12-18T10:20:07;37.94;86.00
74420;DHT22;62855;50.718;-2.460;2022-12-18T10:23:03;39.38;87.00
74420;DHT22;62855;50.718;-2.460;2022-12-18T10:26:03;40.64;88.00
74420;DHT22;62855;50.718;-2.460;2022-12-18T10:29:01;41.18;88.00
74420;DHT22;62855;50.718;-2.460;2022-12-18T10:32:01;41.90;89.00
74420;DHT22;62855;50.718;-2.460;2022-12-18T10:35:01;42.26;90.00
74420;DHT22;62855;50.718;-2.460;2022-12-18T10:38:03;42.44;90.00
74420;DHT22;62855;50.718;-2.460;2022-12-18T10:41:03;42.62;90.00
74420;DHT22;62855;50.718;-2.460;2022-12-18T10:44:12;42.80;90.00
74420;DHT22;62855;50.718;-2.460;2022-12-18T10:47:03;42.98;90.00
74420;DHT22;62855;50.718;-2.460;2022-12-18T10:50:00;43.16;90.00
74420;DHT22;62855;50.718;-2.460;2022-12-18T10:53:03;43.34;90.00
74420;DHT22;62855;50.718;-2.460;2022-12-18T10:56:03;43.34;90.00
74420;DHT22;62855;50.718;-2.460;2022-12-18T10:59:03;43.52;90.00
74420;DHT22;62855;50.718;-2.460;2022-12-18T11:02:00;43.52;91.00
74420;DHT22;62855;50.718;-2.460;2022-12-18T11:05:01;43.70;91.00
74420;DHT22;62855;50.718;-2.460;2022-12-18T11:08:01;43.70;91.00
74420;DHT22;62855;50.718;-2.460;2022-12-18T11:11:01;43.70;91.00
74420;DHT22;62855;50.718;-2.460;2022-12-18T11:14:04;43.88;91.00
74420;DHT22;62855;50.718;-2.460;2022-12-18T11:17:01;43.88;91.00
74420;DHT22;62855;50.718;-2.460;2022-12-18T11:20:02;43.88;91.00
74420;DHT22;62855;50.718;-2.460;2022-12-18T11:23:01;43.88;91.00
74420;DHT22;62855;50.718;-2.460;2022-12-18T11:26:03;43.88;91.00
74420;DHT22;62855;50.718;-2.460;2022-12-18T11:29:08;44.06;91.00
74420;DHT22;62855;50.718;-2.460;2022-12-18T11:32:25;44.06;91.00
74420;DHT22;62855;50.718;-2.460;2022-12-18T11:35:08;44.24;91.00
74420;DHT22;62855;50.718;-2.460;2022-12-18T11:38:04;44.24;91.00
74420;DHT22;62855;50.718;-2.460;2022-12-18T11:41:05;44.42;86.00
74420;DHT22;62855;50.718;-2.460;2022-12-18T11:44:03;44.42;87.00
74420;DHT22;62855;50.718;-2.460;2022-12-18T11:47:04;44.42;87.00
74420;DHT22;62855;50.718;-2.460;2022-12-18T11:50:02;44.60;87.00
74420;DHT22;62855;50.718;-2.460;2022-12-18T11:53:00;44.60;87.00
74420;DHT22;62855;50.718;-2.460;2022-12-18T11:56:07;44.60;87.00
74420;DHT22;62855;50.718;-2.460;2022-12-18T11:59:09;44.78;87.00
74420;DHT22;62855;50.718;-2.460;2022-12-18T12:02:17;44.78;87.00
74420;DHT22;62855;50.718;-2.460;2022-12-18T12:05:12;44.96;87.00
74420;DHT22;62855;50.718;-2.460;2022-12-18T12:08:06;44.96;87.00
74420;DHT22;62855;50.718;-2.460;2022-12-18T12:11:05;44.96;87.00
74420;DHT22;62855;50.718;-2.460;2022-12-18T12:14:13;44.96;87.00
74420;DHT22;62855;50.718;-2.460;2022-12-18T12:17:06;44.96;87.00
74420;DHT22;62855;50.718;-2.460;2022-12-18T12:20:05;45.14;87.00
74420;DHT22;62855;50.718;-2.460;2022-12-18T12:23:06;45.14;87.00
74420;DHT22;62855;50.718;-2.460;2022-12-18T12:26:03;45.14;87.00
74420;DHT22;62855;50.718;-2.460;2022-12-18T12:29:10;45.32;87.00
74420;DHT22;62855;50.718;-2.460;2022-12-18T12:32:11;45.32;87.00
74420;DHT22;62855;50.718;-2.460;2022-12-18T12:35:12;45.32;88.00
74420;DHT22;62855;50.718;-2.460;2022-12-18T12:38:07;45.32;88.00
74420;DHT22;62855;50.718;-2.460;2022-12-18T12:41:03;45.50;88.00
74420;DHT22;62855;50.718;-2.460;2022-12-18T12:44:03;45.50;88.00
74420;DHT22;62855;50.718;-2.460;2022-12-18T12:47:07;45.50;88.00
74420;DHT22;62855;50.718;-2.460;2022-12-18T12:50:03;45.50;88.00
74420;DHT22;62855;50.718;-2.460;2022-12-18T12:53:05;45.68;88.00
74420;DHT22;62855;50.718;-2.460;2022-12-18T12:56:01;45.68;88.00
74420;DHT22;62855;50.718;-2.460;2022-12-18T12:59:05;45.68;88.00
74420;DHT22;62855;50.718;-2.460;2022-12-18T13:02:06;45.86;88.00
74420;DHT22;62855;50.718;-2.460;2022-12-18T13:05:06;45.86;88.00
74420;DHT22;62855;50.718;-2.460;2022-12-18T13:08:03;45.86;88.00
74420;DHT22;62855;50.718;-2.460;2022-12-18T13:11:01;45.86;88.00
74420;DHT22;62855;50.718;-2.460;2022-12-18T13:14:00;45.86;88.00
74420;DHT22;62855;50.718;-2.460;2022-12-18T13:17:27;45.86;88.00
74420;DHT22;62855;50.718;-2.460;2022-12-18T13:20:07;45.86;88.00
74420;DHT22;62855;50.718;-2.460;2022-12-18T13:23:01;45.86;88.00
74420;DHT22;62855;50.718;-2.460;2022-12-18T13:26:29;45.86;88.00
74420;DHT22;62855;50.718;-2.460;2022-12-18T13:29:02;45.86;88.00
74420;DHT22;62855;50.718;-2.460;2022-12-18T13:32:00;45.86;88.00
74420;DHT22;62855;50.718;-2.460;2022-12-18T13:38:01;45.86;88.00
74420;DHT22;62855;50.718;-2.460;2022-12-18T13:41:03;45.86;88.00
74420;DHT22;62855;50.718;-2.460;2022-12-18T13:44:11;46.04;88.00
74420;DHT22;62855;50.718;-2.460;2022-12-18T13:47:01;46.04;88.00
74420;DHT22;62855;50.718;-2.460;2022-12-18T13:50:09;46.04;88.00
74420;DHT22;62855;50.718;-2.460;2022-12-18T13:53:01;46.04;89.00
74420;DHT22;62855;50.718;-2.460;2022-12-18T13:56:02;46.22;89.00
74420;DHT22;62855;50.718;-2.460;2022-12-18T13:59:11;46.22;89.00
74420;DHT22;62855;50.718;-2.460;2022-12-18T14:02:09;46.22;89.00
74420;DHT22;62855;50.718;-2.460;2022-12-18T14:05:00;46.22;89.00
74420;DHT22;62855;50.718;-2.460;2022-12-18T14:08:03;46.40;89.00
74420;DHT22;62855;50.718;-2.460;2022-12-18T14:11:01;46.40;89.00
74420;DHT22;62855;50.718;-2.460;2022-12-18T14:14:00;46.40;89.00
74420;DHT22;62855;50.718;-2.460;2022-12-18T14:17:01;46.40;89.00
74420;DHT22;62855;50.718;-2.460;2022-12-18T14:20:00;46.40;89.00
74420;DHT22;62855;50.718;-2.460;2022-12-18T14:23:01;46.58;89.00
74420;DHT22;62855;50.718;-2.460;2022-12-18T14:26:02;46.76;89.00
74420;DHT22;62855;50.718;-2.460;2022-12-18T14:29:14;46.76;89.00
74420;DHT22;62855;50.718;-2.460;2022-12-18T14:32:09;46.76;89.00
74420;DHT22;62855;50.718;-2.460;2022-12-18T14:35:12;46.76;89.00
74420;DHT22;62855;50.718;-2.460;2022-12-18T14:38:20;46.94;89.00
74420;DHT22;62855;50.718;-2.460;2022-12-18T14:41:03;46.94;89.00
74420;DHT22;62855;50.718;-2.460;2022-12-18T14:44:06;47.12;89.00
74420;DHT22;62855;50.718;-2.460;2022-12-18T14:47:00;47.12;89.00
74420;DHT22;62855;50.718;-2.460;2022-12-18T14:50:01;47.12;89.00
74420;DHT22;62855;50.718;-2.460;2022-12-18T14:53:00;47.12;89.00
74420;DHT22;62855;50.718;-2.460;2022-12-18T14:56:02;47.12;89.00
74420;DHT22;62855;50.718;-2.460;2022-12-18T14:59:03;47.30;90.00
74420;DHT22;62855;50.718;-2.460;2022-12-18T15:02:03;47.30;90.00
74420;DHT22;62855;50.718;-2.460;2022-12-18T15:05:02;47.30;90.00
74420;DHT22;62855;50.718;-2.460;2022-12-18T15:08:01;47.30;90.00
74420;DHT22;62855;50.718;-2.460;2022-12-18T15:11:01;47.30;90.00
74420;DHT22;62855;50.718;-2.460;2022-12-18T15:14:22;47.48;90.00
74420;DHT22;62855;50.718;-2.460;2022-12-18T15:17:03;47.48;90.00
74420;DHT22;62855;50.718;-2.460;2022-12-18T15:20:02;47.48;90.00
74420;DHT22;62855;50.718;-2.460;2022-12-18T15:23:01;47.48;90.00
74420;DHT22;62855;50.718;-2.460;2022-12-18T15:26:02;47.48;90.00
74420;DHT22;62855;50.718;-2.460;2022-12-18T15:29:00;47.48;90.00
74420;DHT22;62855;50.718;-2.460;2022-12-18T15:32:02;47.48;90.00
74420;DHT22;62855;50.718;-2.460;2022-12-18T15:35:03;47.48;90.00
74420;DHT22;62855;50.718;-2.460;2022-12-18T15:38:01;47.66;90.00
74420;DHT22;62855;50.718;-2.460;2022-12-18T15:41:02;47.66;90.00
74420;DHT22;62855;50.718;-2.460;2022-12-18T15:44:00;47.66;90.00
74420;DHT22;62855;50.718;-2.460;2022-12-18T15:47:00;47.66;90.00
74420;DHT22;62855;50.718;-2.460;2022-12-18T15:50:00;47.66;90.00
74420;DHT22;62855;50.718;-2.460;2022-12-18T15:53:01;47.66;90.00
74420;DHT22;62855;50.718;-2.460;2022-12-18T15:56:00;47.66;90.00
74420;DHT22;62855;50.718;-2.460;2022-12-18T15:59:01;47.66;90.00
74420;DHT22;62855;50.718;-2.460;2022-12-18T16:02:00;47.66;90.00
74420;DHT22;62855;50.718;-2.460;2022-12-18T16:05:00;47.66;90.00
74420;DHT22;62855;50.718;-2.460;2022-12-18T16:08:00;47.66;90.00
74420;DHT22;62855;50.718;-2.460;2022-12-18T16:11:01;47.66;90.00
74420;DHT22;62855;50.718;-2.460;2022-12-18T16:14:01;47.66;90.00
74420;DHT22;62855;50.718;-2.460;2022-12-18T16:17:01;47.84;90.00
74420;DHT22;62855;50.718;-2.460;2022-12-18T16:20:00;47.84;90.00
74420;DHT22;62855;50.718;-2.460;2022-12-18T16:23:00;47.84;90.00
74420;DHT22;62855;50.718;-2.460;2022-12-18T16:26:01;48.02;90.00
74420;DHT22;62855;50.718;-2.460;2022-12-18T16:29:00;48.02;90.00
74420;DHT22;62855;50.718;-2.460;2022-12-18T16:32:01;48.02;90.00
74420;DHT22;62855;50.718;-2.460;2022-12-18T16:35:01;48.02;90.00
74420;DHT22;62855;50.718;-2.460;2022-12-18T16:38:00;48.02;90.00
74420;DHT22;62855;50.718;-2.460;2022-12-18T16:41:01;48.20;90.00
74420;DHT22;62855;50.718;-2.460;2022-12-18T16:44:01;48.20;90.00
74420;DHT22;62855;50.718;-2.460;2022-12-18T16:47:00;48.20;90.00
74420;DHT22;62855;50.718;-2.460;2022-12-18T16:50:00;48.20;90.00
74420;DHT22;62855;50.718;-2.460;2022-12-18T16:53:00;48.20;90.00
74420;DHT22;62855;50.718;-2.460;2022-12-18T16:56:00;48.20;90.00
74420;DHT22;62855;50.718;-2.460;2022-12-18T16:59:01;48.20;90.00
74420;DHT22;62855;50.718;-2.460;2022-12-18T17:02:01;48.38;90.00
74420;DHT22;62855;50.718;-2.460;2022-12-18T17:05:01;48.38;90.00
74420;DHT22;62855;50.718;-2.460;2022-12-18T17:08:00;48.38;90.00
74420;DHT22;62855;50.718;-2.460;2022-12-18T17:11:05;48.38;90.00
74420;DHT22;62855;50.718;-2.460;2022-12-18T17:14:05;48.56;90.00
74420;DHT22;62855;50.718;-2.460;2022-12-18T17:17:01;48.56;90.00
74420;DHT22;62855;50.718;-2.460;2022-12-18T17:20:00;48.74;90.00
74420;DHT22;62855;50.718;-2.460;2022-12-18T17:23:01;48.74;90.00
74420;DHT22;62855;50.718;-2.460;2022-12-18T17:26:00;48.92;90.00
74420;DHT22;62855;50.718;-2.460;2022-12-18T17:29:00;48.92;90.00
74420;DHT22;62855;50.718;-2.460;2022-12-18T17:32:01;48.92;90.00
74420;DHT22;62855;50.718;-2.460;2022-12-18T17:35:01;49.10;90.00
74420;DHT22;62855;50.718;-2.460;2022-12-18T17:38:00;49.10;90.00
74420;DHT22;62855;50.718;-2.460;2022-12-18T17:41:00;49.10;90.00
74420;DHT22;62855;50.718;-2.460;2022-12-18T17:44:02;49.10;90.00
74420;DHT22;62855;50.718;-2.460;2022-12-18T17:47:01;49.28;90.00
74420;DHT22;62855;50.718;-2.460;2022-12-18T17:50:01;49.28;90.00
74420;DHT22;62855;50.718;-2.460;2022-12-18T17:53:01;49.46;90.00
74420;DHT22;62855;50.718;-2.460;2022-12-18T17:56:01;49.46;90.00
74420;DHT22;62855;50.718;-2.460;2022-12-18T18:00:00;49.46;90.00
74420;DHT22;62855;50.718;-2.460;2022-12-18T18:03:00;49.46;90.00
74420;DHT22;62855;50.718;-2.460;2022-12-18T18:06:01;49.46;90.00
74420;DHT22;62855;50.718;-2.460;2022-12-18T18:09:00;49.64;90.00
74420;DHT22;62855;50.718;-2.460;2022-12-18T18:12:01;49.64;90.00
74420;DHT22;62855;50.718;-2.460;2022-12-18T18:15:00;49.64;90.00
74420;DHT22;62855;50.718;-2.460;2022-12-18T18:18:00;49.64;90.00
74420;DHT22;62855;50.718;-2.460;2022-12-18T18:21:02;49.64;90.00
74420;DHT22;62855;50.718;-2.460;2022-12-18T18:24:01;49.82;91.00
74420;DHT22;62855;50.718;-2.460;2022-12-18T18:27:01;49.82;91.00
74420;DHT22;62855;50.718;-2.460;2022-12-18T18:30:00;49.82;91.00
74420;DHT22;62855;50.718;-2.460;2022-12-18T18:33:00;49.82;91.00
74420;DHT22;62855;50.718;-2.460;2022-12-18T18:36:02;50.00;91.00
74420;DHT22;62855;50.718;-2.460;2022-12-18T18:39:00;50.00;91.00
74420;DHT22;62855;50.718;-2.460;2022-12-18T18:42:00;50.00;91.00